Terminal Aerodrome Forecast
Issued by NWS Newport/Morehead City, NC

Home | Current Version | Previous Version | Text Only | Print | Product List | Glossary On
Versions: 1 2 3 4 5 6 7 8 9 10 11 12 13 14 15 16 17 18
680
FTUS42 KMHX 271121
TAFEWN
TAF
KEWN 271121Z 2712/2812 VRB03KT P6SM SKC
     FM271800 29005KT P6SM BKN080
     FM280400 01004KT P6SM SCT250=

USA.gov is the U.S. government's official web portal to all federal, state and local government web resources and services.